Terminal Aerodrome Forecast
Issued by NWS Central Illinois

Home | Current Version | Previous Version | Text Only | Print | Product List | Glossary On
Versions: 1 2 3 4 5 6 7 8 9 10 11 12 13 14 15 16 17 18 19 20 21 22 23 24 25 26 27
000
FTUS43 KILX 181145
TAFPIA
TAF
KPIA 181145Z 1812/1912 02007KT 4SM -SHRA VCTS SCT004CB OVC010
      TEMPO 1812/1814 2SM TSRA BR BKN004CB
     FM181400 34013G22KT 2SM SHRA BR OVC008
     FM181700 33017G27KT 3SM -SHRA BR OVC010
     FM182100 32015G25KT P6SM BKN025
     FM190000 31012G21KT P6SM SCT035
     FM190600 31010KT P6SM SKC=

USA.gov is the U.S. government's official web portal to all federal, state and local government web resources and services.